• Join FlightAware (Why Join?)
  • Login
  • US Flag 
08:09PM EDT


 

Airport Tracker/Info


-or-


 

Live Flight TrackerFlight Track Log ✈ AAL832 ✈ 15-Jun-2013 ✈ KLAX - KORD

Flight Track Log - Related Links

Times and Time Zones

All times are in EDT time to prevent confusion due to time zone crossing. See the AAL832 flight status page for this flight to view local times or setup timezone preferences in your user account.

Time Position Orientation Groundspeed Altitude Reporting Facility
EDT Latitude Longitude Course Direction KTS MPH feet Rate Location/Type
12:52PM 33.9333 -118.4564 59° Northeast 192 221 1,800  Level Los Angeles Center
12:53PM 33.9103 -118.5336 250° West 237 273 3,300 2,100 Climbing Los Angeles Center
12:54PM 34.1397 -118.0539 59° Northeast  Level FlightAware Approximate
12:54PM 33.8636 -118.5964 228° Southwest 267 307 6,200  Level Los Angeles Center
12:55PM 34.2085 -117.9164 59° Northeast  Level FlightAware Approximate
12:55PM 33.8158 -118.5397 135° Southeast 283 326 8,800  Level Los Angeles Center
12:56PM 34.2809 -117.7822 46° Northeast  Level FlightAware Approximate
12:56PM 33.8833 -118.4669 42° Northeast 319 367 10,700  Level Los Angeles Center
12:57PM 34.3632 -117.6570 59° Northeast  Level FlightAware Approximate
12:57PM 33.9528 -118.3997 39° Northeast 350 403 12,200  Level Los Angeles Center
12:58PM 34.0117 -118.2947 56° Northeast 373 429 14,100 1,800 Climbing Los Angeles Center
12:59PM 34.0611 -118.2058 56° Northeast 391 450 15,900 2,280 Climbing Los Angeles Center
01:00PM 34.1525 -118.0461 55° Northeast 412 474 18,900 2,340 Climbing Los Angeles Center
01:01PM 34.2203 -117.9247 56° Northeast 431 496 20,800 1,800 Climbing Los Angeles Center
01:02PM 34.2903 -117.8000 56° Northeast 444 511 22,700 1,680 Climbing Los Angeles Center
01:03PM 34.3617 -117.6728 56° Northeast 456 525 24,300 1,440 Climbing Los Angeles Center
01:04PM 34.4386 -117.5319 56° Northeast 473 544 25,800 1,260 Climbing Los Angeles Center
01:05PM 34.5144 -117.3958 56° Northeast 489 563 27,000 1,200 Climbing Los Angeles Center
01:06PM 34.6008 -117.2650 51° Northeast 502 578 28,300 1,260 Climbing Los Angeles Center
01:07PM 34.7125 -117.1103 49° Northeast 511 588 29,700 1,380 Climbing Los Angeles Center
01:08PM 34.8064 -116.9800 49° Northeast 515 593 31,200 1,320 Climbing Los Angeles Center
01:09PM 34.8997 -116.8503 49° Northeast 513 590 32,500 1,080 Climbing Los Angeles Center
01:10PM 34.9922 -116.7189 49° Northeast 514 592 33,500 960 Climbing Los Angeles Center
01:11PM 35.0867 -116.5883 49° Northeast 516 594 34,500 960 Climbing Los Angeles Center
01:12PM 35.1794 -116.4547 50° Northeast 516 594 35,500 840 Climbing Los Angeles Center
01:13PM 35.2908 -116.2969 49° Northeast 514 592 36,300 720 Climbing Los Angeles Center
01:14PM 35.3850 -116.1603 50° Northeast 522 601 37,000 300 Climbing Los Angeles Center
01:16PM 35.4806 -116.0253 49° Northeast 525 604 37,000  Level Los Angeles Center
01:17PM 35.5836 -115.8753 50° Northeast 524 603 37,000  Level Los Angeles Center
01:18PM 35.6972 -115.7203 48° Northeast 513 590 37,000  Level Los Angeles Center
01:19PM 35.7900 -115.5836 50° Northeast 517 595 37,000  Level Los Angeles Center
01:20PM 35.9197 -115.3953 50° Northeast 517 595 37,000  Level Los Angeles Center
01:21PM 36.0103 -115.2611 50° Northeast 515 593 37,000  Level Los Angeles Center
01:22PM 36.1014 -115.1264 50° Northeast 515 593 37,000  Level Los Angeles Center
01:23PM 36.2014 -115.0050 44° Northeast 511 588 37,000  Level Los Angeles Center
01:24PM 36.3003 -114.8797 46° Northeast 512 589 37,000  Level Los Angeles Center
01:25PM 36.4169 -114.7294 46° Northeast 508 585 37,000  Level Los Angeles Center
01:26PM 36.5144 -114.6011 47° Northeast 511 588 37,000  Level Los Angeles Center
01:27PM 36.6114 -114.4742 46° Northeast 509 586 37,000  Level Los Angeles Center
01:28PM 36.7089 -114.3464 46° Northeast 509 586 37,000  Level Los Angeles Center
01:29PM 36.7947 -114.2056 53° Northeast 512 589 37,000  Level Los Angeles Center
01:30PM 36.8689 -114.0533 59° Northeast 514 592 37,000  Level Los Angeles Center
01:31PM 36.9514 -113.8811 59° Northeast 514 592 37,000  Level Los Angeles Center
01:32PM 37.0239 -113.7267 60° Northeast 516 594 37,000  Level Los Angeles Center
01:34PM 37.0972 -113.5728 59° Northeast 516 594 37,000  Level Los Angeles Center
01:35PM 37.1697 -113.4200 59° Northeast 514 592 37,000  Level Los Angeles Center
01:36PM 37.2581 -113.2358 59° Northeast 514 592 37,000  Level Los Angeles Center
01:37PM 37.3297 -113.0811 60° Northeast 516 594 37,000  Level Los Angeles Center
01:38PM 37.4006 -112.9275 60° Northeast 514 592 37,000  Level Los Angeles Center
01:38PM 37.4553 -112.8056 60° Northeast 516 594 37,000  Level Salt Lake Center
01:39PM 37.5278 -112.6536 59° Northeast 520 598 37,000  Level Salt Lake Center
01:40PM 37.5567 -112.5928 59° Northeast 517 595 37,000  Level Los Angeles Center
01:41PM 37.6139 -112.4694 60° Northeast 516 594 37,000  Level Salt Lake Center
01:42PM 37.6858 -112.3136 60° Northeast 517 595 37,000  Level Salt Lake Center
01:43PM 37.7694 -112.1653 54° Northeast 521 600 37,000  Level Salt Lake Center
01:44PM 37.8558 -112.0178 53° Northeast 524 603 37,000  Level Salt Lake Center
01:45PM 37.9578 -111.8381 54° Northeast 526 605 37,000  Level Denver Center
01:46PM 38.0436 -111.6903 54° Northeast 524 603 37,000  Level Salt Lake Center
01:47PM 38.1283 -111.5414 54° Northeast 522 601 37,000  Level Salt Lake Center
01:48PM 38.2131 -111.3928 54° Northeast 521 600 37,000  Level Salt Lake Center
01:49PM 38.2972 -111.2433 54° Northeast 521 600 37,000  Level Salt Lake Center
01:50PM 38.3808 -111.0925 55° Northeast 521 600 37,000  Level Salt Lake Center
01:51PM 38.4733 -110.9261 55° Northeast 522 601 37,000  Level Salt Lake Center
01:52PM 38.5536 -110.7819 55° Northeast 520 598 37,000  Level Salt Lake Center
01:53PM 38.6475 -110.6147 54° Northeast 519 597 37,000  Level Salt Lake Center
01:54PM 38.7264 -110.4678 55° Northeast 522 601 37,000  Level Salt Lake Center
01:55PM 38.8208 -110.2981 54° Northeast 523 602 37,000  Level Salt Lake Center
01:56PM 38.9006 -110.1517 55° Northeast 524 603 37,000  Level Salt Lake Center
01:57PM 38.9931 -109.9803 55° Northeast 523 602 37,000  Level Salt Lake Center
01:58PM 39.0711 -109.8333 56° Northeast 519 597 37,000  Level Salt Lake Center
01:59PM 39.1097 -109.7575 57° Northeast 522 601 37,000  Level Denver Center
01:59PM 39.1633 -109.6622 54° Northeast 521 600 37,000  Level Salt Lake Center
02:00PM 39.2422 -109.5142 55° Northeast 521 600 37,000  Level Salt Lake Center
02:01PM 39.3331 -109.3417 56° Northeast 521 600 37,000  Level Salt Lake Center
02:02PM 39.3719 -109.2661 56° Northeast 521 600 37,000  Level Denver Center
02:03PM 39.4494 -109.1189 56° Northeast 517 595 37,000  Level Denver Center
02:03PM 39.5017 -109.0214 55° Northeast 519 597 37,000  Level Salt Lake Center
02:04PM 39.5783 -108.8747 56° Northeast 517 595 37,000  Level Salt Lake Center
02:05PM 39.6214 -108.7919 56° Northeast 520 598 37,000  Level Denver Center
02:06PM 39.7042 -108.6347 56° Northeast 526 605 37,000  Level Denver Center
02:07PM 39.7928 -108.4622 56° Northeast 516 594 37,000  Level Denver Center
02:08PM 39.8719 -108.3117 56° Northeast 527 606 37,000  Level Denver Center
02:09PM 39.9478 -108.1633 56° Northeast 515 593 37,000  Level Denver Center
02:10PM 40.0347 -107.9889 57° Northeast 514 592 37,000  Level Denver Center
02:11PM 40.1275 -107.8583 47° Northeast 516 594 37,000  Level Denver Center
02:12PM 40.2522 -107.7311 38° Northeast 511 588 37,000  Level Denver Center
02:13PM 40.3581 -107.6186 39° Northeast 511 588 37,000  Level Denver Center
02:14PM 40.4814 -107.4889 39° Northeast 509 586 37,000  Level Denver Center
02:15PM 40.5875 -107.3764 39° Northeast 510 587 37,000  Level Denver Center
02:16PM 40.7106 -107.2444 39° Northeast 511 588 37,000  Level Denver Center
02:17PM 40.8372 -107.1103 39° Northeast 519 597 37,000  Level Denver Center
02:18PM 40.9614 -106.9764 39° Northeast 518 596 37,000  Level Denver Center
02:19PM 41.0667 -106.8622 39° Northeast 515 593 37,000  Level Denver Center
02:20PM 41.1925 -106.7267 39° Northeast 520 598 37,000  Level Denver Center
02:22PM 41.2978 -106.6103 40° Northeast 518 596 37,000  Level Denver Center
02:23PM 41.4211 -106.4761 39° Northeast 513 590 37,000  Level Denver Center
02:24PM 41.5297 -106.3639 38° Northeast 512 589 37,000  Level Denver Center
02:25PM 41.6511 -106.2225 41° Northeast 518 596 37,000  Level Denver Center
02:26PM 41.7558 -106.1053 40° Northeast 514 592 37,000  Level Denver Center
02:27PM 41.8617 -105.9850 40° Northeast 517 595 37,000  Level Denver Center
02:28PM 41.9761 -105.8317 45° Northeast 521 600 37,000  Level Denver Center
02:29PM 42.1056 -105.6556 45° Northeast 517 595 37,000  Level Denver Center
02:30PM 42.2033 -105.5236 45° Northeast 519 597 37,000  Level Denver Center
02:31PM 42.3000 -105.3906 45° Northeast 519 597 37,000  Level Denver Center
02:32PM 42.4150 -105.2342 45° Northeast 523 602 37,000  Level Denver Center
02:33PM 42.5119 -105.1011 45° Northeast 517 595 37,000  Level Denver Center
02:34PM 42.6261 -104.9444 45° Northeast 517 595 37,000  Level Denver Center
02:35PM 42.7253 -104.8086 45° Northeast 521 600 37,000  Level Denver Center
02:36PM 42.8233 -104.6708 46° Northeast 521 600 37,000  Level Denver Center
02:37PM 42.9383 -104.5100 46° Northeast 524 603 37,000  Level Denver Center
02:38PM 43.0356 -104.3708 46° Northeast 525 604 37,000  Level Denver Center
02:39PM 43.1492 -104.2103 46° Northeast 525 604 37,000  Level Denver Center
02:40PM 43.2461 -104.0719 46° Northeast 525 604 37,000  Level Denver Center
02:41PM 43.3586 -103.9103 46° Northeast 523 602 37,000  Level Denver Center
02:42PM 43.4542 -103.7725 46° Northeast 522 601 37,000  Level Denver Center
02:43PM 43.5675 -103.6114 46° Northeast 523 602 37,000  Level Denver Center
02:44PM 43.6628 -103.4739 46° Northeast 519 597 37,000  Level Denver Center
02:45PM 43.7608 -103.3344 46° Northeast 524 603 37,000  Level Denver Center
02:46PM 43.8711 -103.1708 47° Northeast 522 601 37,000  Level Denver Center
02:48PM 43.9644 -103.0283 48° Northeast 521 600 37,000  Level Denver Center
02:49PM 44.0419 -102.8278 62° Northeast 524 603 37,000  Level Denver Center
02:50PM 44.1033 -102.6297 67° East 531 611 37,000  Level Denver Center
02:51PM 44.1625 -102.4442 66° East 526 605 37,000  Level Denver Center
02:52PM 44.1447 -102.2394 97° East 534 615 37,000  Level Denver Center
02:53PM 44.1297 -102.0414 96° East 520 598 37,000  Level Denver Center
02:54PM 44.1125 -101.8439 97° East 517 595 37,000  Level Denver Center
02:55PM 44.0942 -101.6453 97° East 519 597 37,000  Level Denver Center
02:56PM 44.0825 -101.4528 95° East 511 588 37,000  Level Denver Center
02:57PM 44.0636 -101.2556 98° East 514 592 37,000  Level Minneapolis Center
02:58PM 44.0433 -101.0225 97° East 512 589 37,000  Level Minneapolis Center
02:59PM 44.0286 -100.8314 96° East 507 583 37,000  Level Minneapolis Center
03:00PM 44.0103 -100.6353 97° East 511 588 37,000  Level Minneapolis Center
03:01PM 43.9917 -100.4389 97° East 514 592 37,000  Level Minneapolis Center
03:02PM 43.9731 -100.2422 97° East 516 594 37,000  Level Minneapolis Center
03:03PM 43.9469 -99.9697 97° East 512 589 37,000  Level Minneapolis Center
03:04PM 43.9278 -99.7761 98° East 511 588 37,000  Level Minneapolis Center
03:05PM 43.9078 -99.5800 98° East 512 589 37,000  Level Minneapolis Center
03:06PM 43.8897 -99.3867 97° East 512 589 37,000  Level Minneapolis Center
03:07PM 43.8692 -99.1939 98° East 509 586 37,000  Level Minneapolis Center
03:08PM 43.8486 -99.0061 99° East 504 580 37,000  Level Minneapolis Center
03:09PM 43.8242 -98.7803 98° East 499 574 37,000  Level Minneapolis Center
03:10PM 43.8031 -98.5922 99° East 497 572 37,000  Level Minneapolis Center
03:11PM 43.7817 -98.4022 99° East 501 577 37,000  Level Minneapolis Center
03:12PM 43.7614 -98.2111 98° East 503 579 37,000  Level Minneapolis Center
03:13PM 43.7389 -98.0208 99° East 504 580 37,000  Level Minneapolis Center
03:15PM 43.7167 -97.8306 99° East 503 579 37,000  Level Minneapolis Center
03:16PM 43.6858 -97.5667 99° East 500 575 37,000  Level Minneapolis Center
03:17PM 43.6619 -97.3772 100° East 502 578 37,000  Level Minneapolis Center
03:18PM 43.6383 -97.1883 100° East 502 578 37,000  Level Minneapolis Center
03:19PM 43.6156 -96.9986 99° East 503 579 37,000  Level Minneapolis Center
03:20PM 43.5917 -96.8119 100° East 501 577 37,000  Level Minneapolis Center
03:21PM 43.5692 -96.6267 99° East 496 571 37,000  Level Minneapolis Center
03:22PM 43.5436 -96.4403 101° East 498 573 37,000  Level Minneapolis Center
03:23PM 43.5153 -96.2172 100° East 498 573 37,000  Level Minneapolis Center
03:24PM 43.4911 -96.0347 100° East 491 565 37,000  Level Minneapolis Center
03:25PM 43.4661 -95.8519 101° East 489 563 37,000  Level Minneapolis Center
03:26PM 43.4417 -95.6700 100° East 487 560 37,000  Level Minneapolis Center
03:27PM 43.4167 -95.4919 101° East 480 552 37,000  Level Minneapolis Center
03:28PM 43.3919 -95.3164 101° East 472 543 37,000  Level Minneapolis Center
03:29PM 43.3681 -95.1419 101° East 468 539 37,000  Level Minneapolis Center
03:30PM 43.3364 -94.9278 101° East 478 550 37,000  Level Minneapolis Center
03:31PM 43.3108 -94.7478 101° East 481 554 37,000  Level Minneapolis Center
03:32PM 43.2842 -94.5647 101° East 492 566 37,000  Level Minneapolis Center
03:33PM 43.2558 -94.3822 102° East 492 566 37,000  Level Minneapolis Center
03:34PM 43.2258 -94.1772 101° East 498 573 37,000  Level Minneapolis Center
03:35PM 43.1917 -93.9583 102° East 497 572 37,000  Level Minneapolis Center
03:36PM 43.1642 -93.7736 101° East 497 572 37,000  Level Minneapolis Center
03:37PM 43.1356 -93.5894 102° East 499 574 37,000  Level Minneapolis Center
03:38PM 43.1064 -93.4064 102° East 499 574 37,000  Level Minneapolis Center
03:40PM 43.0853 -93.2183 99° East 502 578 37,000  Level Minneapolis Center
03:41PM 43.0744 -93.0292 94° East 504 580 37,000  Level Minneapolis Center
03:42PM 43.0594 -92.8028 95° East 503 579 37,000  Level Minneapolis Center
03:43PM 43.0461 -92.6156 96° East 502 578 37,000  Level Minneapolis Center
03:44PM 43.0325 -92.4278 96° East 500 575 37,000  Level Minneapolis Center
03:45PM 43.0189 -92.2383 96° East 502 578 37,000  Level Minneapolis Center
03:46PM 43.0044 -92.0489 96° East 504 580 37,000 -540 Level Minneapolis Center
03:47PM 42.9908 -91.8564 95° East 507 583 35,900 -1,740 Descending Minneapolis Center
03:48PM 42.9800 -91.7014 95° East 509 586 33,500 -2,220 Descending Minneapolis Center
03:49PM 42.9592 -91.4639 97° East 515 593 31,000 -1,140 Descending Minneapolis Center
03:50PM 42.9219 -91.2347 102° East 517 595 31,000  Level Chicago Center
03:51PM 42.8844 -91.0072 103° East 515 593 31,000 -420 Level Chicago Center
03:52PM 42.8542 -90.8161 102° East 518 596 30,200 -960 Descending Chicago Center
03:53PM 42.8219 -90.6267 103° East 516 594 29,100 -1,140 Descending Chicago Center
03:54PM 42.7906 -90.4414 103° East 506 582 27,900 -1,200 Descending Chicago Center
03:55PM 42.7594 -90.2600 103° East 498 573 26,700 -1,200 Descending Chicago Center
03:56PM 42.7300 -90.0808 103° East 488 562 25,500 -1,560 Descending Chicago Center
03:57PM 42.6950 -89.8806 103° East 486 559 23,500 -1,980 Descending Chicago Center
03:58PM 42.6633 -89.7072 104° East 476 548 21,500 -2,160 Descending Chicago Center
03:59PM 42.6322 -89.5239 103° East 432 497 19,100 -1,920 Descending Chicago Center
04:00PM 42.6056 -89.3711 103° East 419 482 17,600 -1,440 Descending Chicago Center
04:01PM 42.5783 -89.2231 104° East 407 468 16,100 -1,500 Descending Chicago Center
04:02PM 42.5500 -89.0783 105° East 400 460 14,600 -1,260 Descending Chicago Center
04:03PM 42.5081 -88.9433 113° Southeast 391 450 13,600 -1,260 Descending Chicago Center
04:04PM 42.4617 -88.7856 112° Southeast 387 445 12,100 -1,260 Descending Chicago Center
04:05PM 42.4219 -88.6539 112° Southeast 380 437 11,100 -1,020 Descending Chicago Center
04:06PM 42.3803 -88.5214 113° Southeast 382 440 10,100 -600 Descending Chicago Center
04:07PM 42.3411 -88.3897 112° Southeast 380 437 9,900 -60 Descending Chicago Center
04:09PM 42.2714 -88.2736 129° Southeast 373 429 10,000  Climbing Chicago Center
04:10PM 42.2069 -88.1669 129° Southeast 370 426 10,000 -60 Level Chicago Center
04:11PM 42.1219 -88.0958 148° Southeast 363 418 9,900 -300 Descending Chicago Center
04:12PM 42.0500 -88.0000 135° Southeast 303 349 9,500 -900 Descending Chicago TRACON
04:13PM 41.9833 -87.9333 143° Southeast 339 390 8,100 -1,320 Descending Chicago TRACON
04:13PM 41.9333 -87.8667 135° Southeast 322 371 7,100 -600 Descending Chicago TRACON
04:14PM 41.8833 -87.7833 129° Southeast 294 338 7,000 -120 Descending Chicago TRACON
04:16PM 41.8842 -87.6553 89° East 282 325 6,900 -60 Descending Chicago Center
04:17PM 41.8833 -87.5547 91° East 272 313 6,900 -120 Level Chicago Center
04:18PM 41.8831 -87.4608 90° East 257 296 6,700 -660 Descending Chicago Center
04:19PM 41.8819 -87.3742 91° East 237 273 5,600 -840 Descending Chicago Center
04:20PM 41.8844 -87.2958 88° East 214 246 5,000 -360 Descending Chicago Center
04:21PM 41.9411 -87.3164 345° North 191 220 4,900 -60 Descending Chicago Center
04:22PM 41.9603 -87.3778 293° West 184 212 4,900  Level Chicago Center
04:23PM 41.9694 -87.4428 281° West 179 206 4,900  Level Chicago Center
04:24PM 41.9692 -87.5106 270° West 182 209 4,900  Level Chicago Center
04:25PM 41.9697 -87.5761 271° West 180 207 4,900  Level Chicago Center